sensor_id;sensor_type;location;lat;lon;timestamp;pressure;altitude;pressure_sealevel;temperature;humidity
52249;BME280;38541;48.130;8.378;2023-07-13T00:00:09;92895.06;;;17.74;66.38
52249;BME280;38541;48.130;8.378;2023-07-13T00:02:39;92891.94;;;17.72;65.76
52249;BME280;38541;48.130;8.378;2023-07-13T00:05:06;92884.69;;;17.64;64.58
52249;BME280;38541;48.130;8.378;2023-07-13T00:07:33;92888.38;;;17.54;63.67
52249;BME280;38541;48.130;8.378;2023-07-13T00:10:00;92888.88;;;17.56;62.26
52249;BME280;38541;48.130;8.378;2023-07-13T00:12:30;92889.97;;;17.55;61.27
52249;BME280;38541;48.130;8.378;2023-07-13T00:14:58;92894.47;;;17.54;61.54
52249;BME280;38541;48.130;8.378;2023-07-13T00:17:26;92894.00;;;17.52;60.34
52249;BME280;38541;48.130;8.378;2023-07-13T00:19:54;92891.13;;;17.49;59.86
52249;BME280;38541;48.130;8.378;2023-07-13T00:22:22;92887.72;;;17.48;59.11
52249;BME280;38541;48.130;8.378;2023-07-13T00:24:50;92881.00;;;17.51;59.32
52249;BME280;38541;48.130;8.378;2023-07-13T00:27:18;92867.72;;;17.51;58.46
52249;BME280;38541;48.130;8.378;2023-07-13T00:29:45;92871.78;;;17.48;58.29
52249;BME280;38541;48.130;8.378;2023-07-13T00:32:12;92859.59;;;17.47;58.36
52249;BME280;38541;48.130;8.378;2023-07-13T00:34:39;92861.31;;;17.52;58.07
52249;BME280;38541;48.130;8.378;2023-07-13T00:37:06;92867.44;;;17.52;57.78
52249;BME280;38541;48.130;8.378;2023-07-13T00:39:35;92866.63;;;17.52;57.38
52249;BME280;38541;48.130;8.378;2023-07-13T00:42:02;92863.69;;;17.53;57.48
52249;BME280;38541;48.130;8.378;2023-07-13T00:44:29;92866.63;;;17.52;57.64
52249;BME280;38541;48.130;8.378;2023-07-13T00:46:56;92869.78;;;17.54;57.30
52249;BME280;38541;48.130;8.378;2023-07-13T00:49:26;92866.75;;;17.47;57.77
52249;BME280;38541;48.130;8.378;2023-07-13T00:52:06;92870.50;;;17.46;57.28
52249;BME280;38541;48.130;8.378;2023-07-13T00:54:38;92862.25;;;17.47;57.14
52249;BME280;38541;48.130;8.378;2023-07-13T00:57:08;92861.16;;;17.48;57.30
52249;BME280;38541;48.130;8.378;2023-07-13T00:59:42;92864.09;;;17.47;57.55
52249;BME280;38541;48.130;8.378;2023-07-13T01:02:10;92865.66;;;17.48;57.03
52249;BME280;38541;48.130;8.378;2023-07-13T01:04:37;92875.81;;;17.46;56.56
52249;BME280;38541;48.130;8.378;2023-07-13T01:07:06;92872.53;;;17.49;57.67
52249;BME280;38541;48.130;8.378;2023-07-13T01:09:32;92876.47;;;17.51;57.05
52249;BME280;38541;48.130;8.378;2023-07-13T01:12:00;92878.94;;;17.48;56.82
52249;BME280;38541;48.130;8.378;2023-07-13T01:14:27;92872.66;;;17.44;56.97
52249;BME280;38541;48.130;8.378;2023-07-13T01:16:54;92870.25;;;17.33;57.14
52249;BME280;38541;48.130;8.378;2023-07-13T01:19:36;92868.03;;;17.27;56.87
52249;BME280;38541;48.130;8.378;2023-07-13T01:22:16;92869.88;;;17.26;57.12
52249;BME280;38541;48.130;8.378;2023-07-13T01:24:45;92872.66;;;17.21;56.99
52249;BME280;38541;48.130;8.378;2023-07-13T01:27:14;92872.47;;;17.17;57.36
52249;BME280;38541;48.130;8.378;2023-07-13T01:29:43;92870.13;;;17.16;57.61
52249;BME280;38541;48.130;8.378;2023-07-13T01:32:16;92874.69;;;17.01;58.45
52249;BME280;38541;48.130;8.378;2023-07-13T01:34:42;92857.88;;;17.06;58.28
52249;BME280;38541;48.130;8.378;2023-07-13T01:37:11;92855.97;;;17.06;57.81
52249;BME280;38541;48.130;8.378;2023-07-13T01:39:38;92857.56;;;17.07;57.56
52249;BME280;38541;48.130;8.378;2023-07-13T01:42:05;92846.94;;;17.07;57.37
52249;BME280;38541;48.130;8.378;2023-07-13T01:44:31;92850.06;;;17.09;56.70
52249;BME280;38541;48.130;8.378;2023-07-13T01:46:58;92857.56;;;17.07;56.87
52249;BME280;38541;48.130;8.378;2023-07-13T01:49:25;92860.69;;;17.09;56.28
52249;BME280;38541;48.130;8.378;2023-07-13T01:51:51;92868.66;;;17.09;56.63
52249;BME280;38541;48.130;8.378;2023-07-13T01:54:18;92868.97;;;17.08;56.32
52249;BME280;38541;48.130;8.378;2023-07-13T01:56:44;92875.03;;;17.08;56.33
52249;BME280;38541;48.130;8.378;2023-07-13T01:59:11;92868.97;;;17.08;56.67
52249;BME280;38541;48.130;8.378;2023-07-13T02:01:37;92865.50;;;17.07;56.55
52249;BME280;38541;48.130;8.378;2023-07-13T02:04:04;92859.72;;;17.05;56.41
52249;BME280;38541;48.130;8.378;2023-07-13T02:06:32;92857.56;;;17.07;56.62
52249;BME280;38541;48.130;8.378;2023-07-13T02:08:59;92857.34;;;17.04;57.10
52249;BME280;38541;48.130;8.378;2023-07-13T02:11:26;92855.00;;;17.02;57.19
52249;BME280;38541;48.130;8.378;2023-07-13T02:13:59;92858.63;;;17.06;57.42
52249;BME280;38541;48.130;8.378;2023-07-13T02:16:27;92863.34;;;17.09;57.94
52249;BME280;38541;48.130;8.378;2023-07-13T02:18:54;92871.31;;;17.09;58.07
52249;BME280;38541;48.130;8.378;2023-07-13T02:21:22;92868.38;;;17.11;58.31
52249;BME280;38541;48.130;8.378;2023-07-13T02:23:51;92863.66;;;17.08;58.20
52249;BME280;38541;48.130;8.378;2023-07-13T02:26:19;92866.78;;;17.10;58.46
52249;BME280;38541;48.130;8.378;2023-07-13T02:28:46;92866.31;;;17.08;58.93
52249;BME280;38541;48.130;8.378;2023-07-13T02:31:15;92870.34;;;17.05;59.61
52249;BME280;38541;48.130;8.378;2023-07-13T02:33:42;92874.06;;;17.04;60.04
52249;BME280;38541;48.130;8.378;2023-07-13T02:36:10;92868.56;;;17.01;59.58
52249;BME280;38541;48.130;8.378;2023-07-13T02:38:38;92874.44;;;16.97;59.66
52249;BME280;38541;48.130;8.378;2023-07-13T02:41:07;92870.16;;;16.88;60.26
52249;BME280;38541;48.130;8.378;2023-07-13T02:43:36;92860.25;;;16.79;60.30
52249;BME280;38541;48.130;8.378;2023-07-13T02:46:03;92862.50;;;16.72;60.67
52249;BME280;38541;48.130;8.378;2023-07-13T02:48:38;92865.25;;;16.67;60.82
52249;BME280;38541;48.130;8.378;2023-07-13T02:51:05;92860.06;;;16.62;60.87
52249;BME280;38541;48.130;8.378;2023-07-13T02:53:31;92868.22;;;16.51;60.90
52249;BME280;38541;48.130;8.378;2023-07-13T02:55:59;92871.84;;;16.55;61.16
52249;BME280;38541;48.130;8.378;2023-07-13T02:58:25;92870.75;;;16.57;60.73
52249;BME280;38541;48.130;8.378;2023-07-13T03:00:52;92867.63;;;16.54;60.83
52249;BME280;38541;48.130;8.378;2023-07-13T03:03:19;92855.28;;;16.50;60.80
52249;BME280;38541;48.130;8.378;2023-07-13T03:05:47;92864.59;;;16.47;61.20
52249;BME280;38541;48.130;8.378;2023-07-13T03:08:18;92871.19;;;16.50;62.06
52249;BME280;38541;48.130;8.378;2023-07-13T03:10:46;92872.56;;;16.47;61.67
52249;BME280;38541;48.130;8.378;2023-07-13T03:13:13;92871.16;;;16.36;61.98
52249;BME280;38541;48.130;8.378;2023-07-13T03:15:40;92862.13;;;16.37;62.24
52249;BME280;38541;48.130;8.378;2023-07-13T03:18:07;92864.78;;;16.37;62.72
52249;BME280;38541;48.130;8.378;2023-07-13T03:20:34;92871.16;;;16.36;62.62
52249;BME280;38541;48.130;8.378;2023-07-13T03:23:00;92870.41;;;16.35;62.48
52249;BME280;38541;48.130;8.378;2023-07-13T03:25:27;92874.19;;;16.29;63.27
52249;BME280;38541;48.130;8.378;2023-07-13T03:27:54;92870.78;;;16.29;63.08
52249;BME280;38541;48.130;8.378;2023-07-13T03:30:21;92867.16;;;16.24;62.85
52249;BME280;38541;48.130;8.378;2023-07-13T03:32:47;92885.72;;;16.24;63.41
52249;BME280;38541;48.130;8.378;2023-07-13T03:35:14;92880.69;;;16.23;63.45
52249;BME280;38541;48.130;8.378;2023-07-13T03:37:40;92880.78;;;16.18;63.72
52249;BME280;38541;48.130;8.378;2023-07-13T03:40:13;92867.22;;;16.19;63.08
52249;BME280;38541;48.130;8.378;2023-07-13T03:42:42;92881.38;;;16.15;63.87
52249;BME280;38541;48.130;8.378;2023-07-13T03:45:09;92880.00;;;16.17;63.96
52249;BME280;38541;48.130;8.378;2023-07-13T03:47:35;92882.38;;;16.19;63.89
52249;BME280;38541;48.130;8.378;2023-07-13T03:50:04;92887.66;;;16.19;63.52
52249;BME280;38541;48.130;8.378;2023-07-13T03:52:30;92887.44;;;16.15;63.33
52249;BME280;38541;48.130;8.378;2023-07-13T03:54:57;92885.13;;;16.14;63.21
52249;BME280;38541;48.130;8.378;2023-07-13T03:57:24;92887.44;;;16.15;63.21
52249;BME280;38541;48.130;8.378;2023-07-13T03:59:50;92891.69;;;16.16;63.63
52249;BME280;38541;48.130;8.378;2023-07-13T04:02:17;92888.84;;;16.13;63.21
52249;BME280;38541;48.130;8.378;2023-07-13T04:04:44;92896.09;;;16.07;63.46
52249;BME280;38541;48.130;8.378;2023-07-13T04:07:10;92903.19;;;16.11;63.63
52249;BME280;38541;48.130;8.378;2023-07-13T04:09:38;92900.63;;;16.20;63.45
52249;BME280;38541;48.130;8.378;2023-07-13T04:12:05;92909.56;;;16.24;63.99
52249;BME280;38541;48.130;8.378;2023-07-13T04:14:32;92901.63;;;16.24;64.03
52249;BME280;38541;48.130;8.378;2023-07-13T04:16:59;92898.88;;;16.30;64.35
52249;BME280;38541;48.130;8.378;2023-07-13T04:19:25;92897.00;;;16.30;64.23
52249;BME280;38541;48.130;8.378;2023-07-13T04:21:52;92898.88;;;16.30;64.35
52249;BME280;38541;48.130;8.378;2023-07-13T04:24:18;92903.28;;;16.34;64.53
52249;BME280;38541;48.130;8.378;2023-07-13T04:26:45;92903.56;;;16.33;65.77
52249;BME280;38541;48.130;8.378;2023-07-13T04:29:12;92903.28;;;16.34;65.19
52249;BME280;38541;48.130;8.378;2023-07-13T04:31:38;92911.53;;;16.33;65.03
52249;BME280;38541;48.130;8.378;2023-07-13T04:34:05;92910.44;;;16.34;64.66
52249;BME280;38541;48.130;8.378;2023-07-13T04:36:32;92918.91;;;16.36;64.78
52249;BME280;38541;48.130;8.378;2023-07-13T04:38:59;92928.25;;;16.33;64.28
52249;BME280;38541;48.130;8.378;2023-07-13T04:41:25;92929.88;;;16.29;64.31
52249;BME280;38541;48.130;8.378;2023-07-13T04:43:52;92935.19;;;16.29;64.86
52249;BME280;38541;48.130;8.378;2023-07-13T04:46:22;92924.41;;;16.25;64.78
52249;BME280;38541;48.130;8.378;2023-07-13T04:48:50;92929.22;;;16.23;64.52
52249;BME280;38541;48.130;8.378;2023-07-13T04:51:19;92938.63;;;16.30;65.23
52249;BME280;38541;48.130;8.378;2023-07-13T04:53:46;92936.25;;;16.28;64.65
52249;BME280;38541;48.130;8.378;2023-07-13T04:56:12;92932.84;;;16.28;64.97
52249;BME280;38541;48.130;8.378;2023-07-13T04:58:39;92940.22;;;16.31;64.79
52249;BME280;38541;48.130;8.378;2023-07-13T05:01:06;92940.59;;;16.38;64.46
52249;BME280;38541;48.130;8.378;2023-07-13T05:03:35;92948.00;;;16.41;64.46
52249;BME280;38541;48.130;8.378;2023-07-13T05:06:05;92946.81;;;16.47;65.34
52249;BME280;38541;48.130;8.378;2023-07-13T05:08:32;92943.88;;;16.49;65.08
52249;BME280;38541;48.130;8.378;2023-07-13T05:11:00;92944.38;;;16.51;64.58
52249;BME280;38541;48.130;8.378;2023-07-13T05:13:27;92946.00;;;16.47;64.30
52249;BME280;38541;48.130;8.378;2023-07-13T05:16:01;92946.44;;;16.54;64.49
52249;BME280;38541;48.130;8.378;2023-07-13T05:18:29;92950.34;;;16.57;64.06
52249;BME280;38541;48.130;8.378;2023-07-13T05:21:03;92950.06;;;16.58;63.94
52249;BME280;38541;48.130;8.378;2023-07-13T05:23:31;92954.00;;;16.61;64.25
52249;BME280;38541;48.130;8.378;2023-07-13T05:25:58;92954.66;;;16.66;64.27
52249;BME280;38541;48.130;8.378;2023-07-13T05:28:25;92953.31;;;16.69;64.20
52249;BME280;38541;48.130;8.378;2023-07-13T05:30:53;92946.31;;;16.73;64.45
52249;BME280;38541;48.130;8.378;2023-07-13T05:33:20;92967.16;;;16.80;64.57
52249;BME280;38541;48.130;8.378;2023-07-13T05:35:47;92966.19;;;16.76;64.85
52249;BME280;38541;48.130;8.378;2023-07-13T05:38:13;92974.91;;;16.76;65.03
52249;BME280;38541;48.130;8.378;2023-07-13T05:40:43;92977.88;;;16.75;65.29
52249;BME280;38541;48.130;8.378;2023-07-13T05:43:10;92980.22;;;16.76;65.22
52249;BME280;38541;48.130;8.378;2023-07-13T05:45:37;92966.56;;;16.83;65.39
52249;BME280;38541;48.130;8.378;2023-07-13T05:48:03;92977.28;;;16.92;64.68
52249;BME280;38541;48.130;8.378;2023-07-13T05:50:30;92976.41;;;16.96;64.70
52249;BME280;38541;48.130;8.378;2023-07-13T05:52:56;92979.56;;;16.99;64.12
52249;BME280;38541;48.130;8.378;2023-07-13T05:55:23;92973.97;;;17.00;64.61
52249;BME280;38541;48.130;8.378;2023-07-13T05:57:49;92972.88;;;17.01;64.35
52249;BME280;38541;48.130;8.378;2023-07-13T06:00:16;92980.75;;;17.06;64.07
52249;BME280;38541;48.130;8.378;2023-07-13T06:02:43;92982.81;;;17.09;64.12
52249;BME280;38541;48.130;8.378;2023-07-13T06:05:10;92993.22;;;17.20;64.33
52249;BME280;38541;48.130;8.378;2023-07-13T06:07:37;92984.66;;;17.23;63.48
52249;BME280;38541;48.130;8.378;2023-07-13T06:10:04;92987.31;;;17.23;61.71
52249;BME280;38541;48.130;8.378;2023-07-13T06:12:30;92982.88;;;17.18;60.84
52249;BME280;38541;48.130;8.378;2023-07-13T06:14:57;92966.97;;;17.04;59.00
52249;BME280;38541;48.130;8.378;2023-07-13T06:17:23;92972.38;;;17.13;60.64
52249;BME280;38541;48.130;8.378;2023-07-13T06:19:50;92974.94;;;17.18;58.64
52249;BME280;38541;48.130;8.378;2023-07-13T06:22:17;92985.94;;;17.25;59.41
52249;BME280;38541;48.130;8.378;2023-07-13T06:24:43;92985.75;;;17.22;58.94
52249;BME280;38541;48.130;8.378;2023-07-13T06:27:10;92976.09;;;17.26;59.23
52249;BME280;38541;48.130;8.378;2023-07-13T06:29:36;92984.75;;;17.32;57.27
52249;BME280;38541;48.130;8.378;2023-07-13T06:32:03;92981.00;;;17.33;56.38
52249;BME280;38541;48.130;8.378;2023-07-13T06:34:29;92985.53;;;17.32;56.61
52249;BME280;38541;48.130;8.378;2023-07-13T06:36:56;92983.75;;;17.42;55.77
52249;BME280;38541;48.130;8.378;2023-07-13T06:39:22;92980.97;;;17.47;54.50
52249;BME280;38541;48.130;8.378;2023-07-13T06:41:49;92986.47;;;17.50;53.58
52249;BME280;38541;48.130;8.378;2023-07-13T06:44:17;92984.78;;;17.54;53.43
52249;BME280;38541;48.130;8.378;2023-07-13T06:46:43;92986.56;;;17.59;53.43
52249;BME280;38541;48.130;8.378;2023-07-13T06:49:10;92985.84;;;17.67;54.61
52249;BME280;38541;48.130;8.378;2023-07-13T06:51:36;92991.63;;;17.69;52.96
52249;BME280;38541;48.130;8.378;2023-07-13T06:54:03;92993.72;;;17.73;52.03
52249;BME280;38541;48.130;8.378;2023-07-13T06:56:29;92994.06;;;17.80;52.38
52249;BME280;38541;48.130;8.378;2023-07-13T06:58:56;92989.25;;;17.82;51.76
52249;BME280;38541;48.130;8.378;2023-07-13T07:01:23;92984.72;;;17.82;50.50
52249;BME280;38541;48.130;8.378;2023-07-13T07:03:49;92991.91;;;17.82;51.41
52249;BME280;38541;48.130;8.378;2023-07-13T07:06:19;92994.75;;;17.86;50.59
52249;BME280;38541;48.130;8.378;2023-07-13T07:08:46;92993.81;;;17.90;51.25
52249;BME280;38541;48.130;8.378;2023-07-13T07:11:17;92995.91;;;17.93;50.94
52249;BME280;38541;48.130;8.378;2023-07-13T07:13:44;92993.25;;;17.93;50.97
52249;BME280;38541;48.130;8.378;2023-07-13T07:16:11;92997.34;;;18.00;51.61
52249;BME280;38541;48.130;8.378;2023-07-13T07:18:37;92989.88;;;18.02;50.59
52249;BME280;38541;48.130;8.378;2023-07-13T07:21:04;92997.44;;;18.08;50.91
52249;BME280;38541;48.130;8.378;2023-07-13T07:23:31;92997.03;;;18.15;50.87
52249;BME280;38541;48.130;8.378;2023-07-13T07:25:58;92998.78;;;18.20;50.67
52249;BME280;38541;48.130;8.378;2023-07-13T07:28:25;93002.88;;;18.26;51.70
52249;BME280;38541;48.130;8.378;2023-07-13T07:30:56;92995.78;;;18.21;50.07
52249;BME280;38541;48.130;8.378;2023-07-13T07:33:26;92987.22;;;18.24;50.71
52249;BME280;38541;48.130;8.378;2023-07-13T07:35:52;92993.66;;;18.32;50.90
52249;BME280;38541;48.130;8.378;2023-07-13T07:38:22;92996.53;;;18.36;50.12
52249;BME280;38541;48.130;8.378;2023-07-13T07:40:51;92994.81;;;18.40;50.75
52249;BME280;38541;48.130;8.378;2023-07-13T07:43:20;93000.13;;;18.40;48.96
52249;BME280;38541;48.130;8.378;2023-07-13T07:45:47;92993.91;;;18.45;50.02
52249;BME280;38541;48.130;8.378;2023-07-13T07:48:14;92999.28;;;18.53;49.42
52249;BME280;38541;48.130;8.378;2023-07-13T07:50:40;93003.47;;;18.46;50.38
52249;BME280;38541;48.130;8.378;2023-07-13T07:53:07;93010.34;;;18.47;50.41
52249;BME280;38541;48.130;8.378;2023-07-13T07:55:34;92999.28;;;18.53;48.93
52249;BME280;38541;48.130;8.378;2023-07-13T07:58:07;93003.56;;;18.63;49.74
52249;BME280;38541;48.130;8.378;2023-07-13T08:00:54;93009.78;;;18.59;49.65
52249;BME280;38541;48.130;8.378;2023-07-13T08:03:23;93004.38;;;18.73;50.23
52249;BME280;38541;48.130;8.378;2023-07-13T08:05:53;93005.84;;;18.88;50.10
52249;BME280;38541;48.130;8.378;2023-07-13T08:08:23;93008.13;;;19.03;49.77
52249;BME280;38541;48.130;8.378;2023-07-13T08:10:50;93010.50;;;19.14;49.40
52249;BME280;38541;48.130;8.378;2023-07-13T08:13:16;93009.25;;;19.20;48.50
52249;BME280;38541;48.130;8.378;2023-07-13T08:15:44;93017.56;;;19.18;48.71
52249;BME280;38541;48.130;8.378;2023-07-13T08:18:11;93009.13;;;19.16;48.36
52249;BME280;38541;48.130;8.378;2023-07-13T08:20:38;93009.72;;;19.13;47.70
52249;BME280;38541;48.130;8.378;2023-07-13T08:23:06;93011.59;;;19.13;47.70
52249;BME280;38541;48.130;8.378;2023-07-13T08:25:33;93018.19;;;19.15;48.21
52249;BME280;38541;48.130;8.378;2023-07-13T08:28:00;93010.84;;;19.21;47.97
52249;BME280;38541;48.130;8.378;2023-07-13T08:30:27;93005.06;;;19.36;47.95
52249;BME280;38541;48.130;8.378;2023-07-13T08:32:54;93007.47;;;19.47;48.75
52249;BME280;38541;48.130;8.378;2023-07-13T08:35:21;93005.25;;;19.49;48.18
52249;BME280;38541;48.130;8.378;2023-07-13T08:37:47;93010.13;;;19.47;48.11
52249;BME280;38541;48.130;8.378;2023-07-13T08:40:14;93006.31;;;19.30;50.07
52249;BME280;38541;48.130;8.378;2023-07-13T08:42:54;93015.91;;;19.40;48.60
52249;BME280;38541;48.130;8.378;2023-07-13T08:45:57;93008.09;;;19.44;49.02
52249;BME280;38541;48.130;8.378;2023-07-13T08:48:33;93013.09;;;19.54;48.29
52249;BME280;38541;48.130;8.378;2023-07-13T08:53:48;93009.66;;;19.80;46.95
52249;BME280;38541;48.130;8.378;2023-07-13T08:56:21;93019.09;;;19.86;47.17
52249;BME280;38541;48.130;8.378;2023-07-13T08:58:51;93018.94;;;19.74;44.21
52249;BME280;38541;48.130;8.378;2023-07-13T09:01:38;93028.00;;;19.64;44.60
52249;BME280;38541;48.130;8.378;2023-07-13T09:04:18;93020.66;;;19.70;45.60
52249;BME280;38541;48.130;8.378;2023-07-13T09:12:19;93012.38;;;20.06;45.79
52249;BME280;38541;48.130;8.378;2023-07-13T09:14:54;93016.94;;;20.23;46.06
52249;BME280;38541;48.130;8.378;2023-07-13T09:17:27;93017.22;;;20.22;45.41
52249;BME280;38541;48.130;8.378;2023-07-13T09:20:22;93009.22;;;20.31;47.11
52249;BME280;38541;48.130;8.378;2023-07-13T09:22:50;93017.84;;;20.28;45.63
52249;BME280;38541;48.130;8.378;2023-07-13T09:25:29;93019.44;;;20.11;45.63
52249;BME280;38541;48.130;8.378;2023-07-13T09:28:23;93021.00;;;20.03;44.35
52249;BME280;38541;48.130;8.378;2023-07-13T09:30:58;93028.88;;;20.00;43.90
52249;BME280;38541;48.130;8.378;2023-07-13T09:33:27;93017.09;;;20.09;43.46
52249;BME280;38541;48.130;8.378;2023-07-13T09:35:56;93026.66;;;20.19;43.87
52249;BME280;38541;48.130;8.378;2023-07-13T09:38:28;93021.78;;;20.21;43.72
52249;BME280;38541;48.130;8.378;2023-07-13T09:41:20;93038.28;;;20.06;43.05
52249;BME280;38541;48.130;8.378;2023-07-13T09:46:35;93028.22;;;20.20;43.63
52249;BME280;38541;48.130;8.378;2023-07-13T09:49:02;93024.47;;;20.30;43.49
52249;BME280;38541;48.130;8.378;2023-07-13T09:51:29;93024.59;;;20.25;44.01
52249;BME280;38541;48.130;8.378;2023-07-13T09:53:55;93033.22;;;20.31;43.62
52249;BME280;38541;48.130;8.378;2023-07-13T09:56:26;93029.94;;;20.25;41.19
52249;BME280;38541;48.130;8.378;2023-07-13T09:58:54;93026.50;;;20.33;42.21
52249;BME280;38541;48.130;8.378;2023-07-13T10:01:37;93022.81;;;20.56;42.88
52249;BME280;38541;48.130;8.378;2023-07-13T10:04:17;93031.50;;;20.35;42.09
52249;BME280;38541;48.130;8.378;2023-07-13T10:06:45;93030.41;;;20.36;42.35
52249;BME280;38541;48.130;8.378;2023-07-13T10:09:16;93032.75;;;20.37;40.60
52249;BME280;38541;48.130;8.378;2023-07-13T10:11:43;93036.81;;;20.44;41.97
52249;BME280;38541;48.130;8.378;2023-07-13T10:14:19;93032.25;;;20.53;42.37
52249;BME280;38541;48.130;8.378;2023-07-13T10:16:48;93027.69;;;20.62;42.86
52249;BME280;38541;48.130;8.378;2023-07-13T10:19:24;93022.66;;;20.70;43.16
52249;BME280;38541;48.130;8.378;2023-07-13T10:21:55;93041.84;;;20.54;41.45
52249;BME280;38541;48.130;8.378;2023-07-13T10:24:32;93038.50;;;20.66;41.74
52249;BME280;38541;48.130;8.378;2023-07-13T10:27:20;93034.09;;;20.70;42.32
52249;BME280;38541;48.130;8.378;2023-07-13T10:29:59;93032.84;;;20.76;40.99
52249;BME280;38541;48.130;8.378;2023-07-13T10:32:27;93033.81;;;20.80;43.64
52249;BME280;38541;48.130;8.378;2023-07-13T10:34:54;93018.84;;;20.88;41.36
52249;BME280;38541;48.130;8.378;2023-07-13T10:37:26;93037.22;;;20.90;42.99
52249;BME280;38541;48.130;8.378;2023-07-13T10:39:55;93044.28;;;20.77;40.43
52249;BME280;38541;48.130;8.378;2023-07-13T10:42:33;93039.13;;;20.89;42.04
52249;BME280;38541;48.130;8.378;2023-07-13T10:45:08;93032.78;;;20.94;40.92
52249;BME280;38541;48.130;8.378;2023-07-13T10:47:38;93032.34;;;20.92;40.22
52249;BME280;38541;48.130;8.378;2023-07-13T10:50:09;93020.53;;;20.93;40.23
52249;BME280;38541;48.130;8.378;2023-07-13T10:52:43;93024.63;;;20.99;39.92
52249;BME280;38541;48.130;8.378;2023-07-13T10:55:30;93027.13;;;21.04;39.63
52249;BME280;38541;48.130;8.378;2023-07-13T10:58:02;93021.47;;;21.36;41.08
52249;BME280;38541;48.130;8.378;2023-07-13T11:00:32;93026.22;;;21.60;39.35
52249;BME280;38541;48.130;8.378;2023-07-13T11:03:01;93029.78;;;21.73;36.99
52249;BME280;38541;48.130;8.378;2023-07-13T11:05:32;93029.78;;;21.73;37.87
52249;BME280;38541;48.130;8.378;2023-07-13T11:10:54;93023.56;;;22.03;36.91
52249;BME280;38541;48.130;8.378;2023-07-13T11:21:29;93037.91;;;22.41;35.58
52249;BME280;38541;48.130;8.378;2023-07-13T11:24:04;93027.78;;;22.46;34.92
52249;BME280;38541;48.130;8.378;2023-07-13T11:26:42;93031.91;;;22.77;35.22
52249;BME280;38541;48.130;8.378;2023-07-13T11:31:42;93026.16;;;23.13;34.04
52249;BME280;38541;48.130;8.378;2023-07-13T11:34:14;93024.34;;;22.92;35.89
52249;BME280;38541;48.130;8.378;2023-07-13T11:36:45;93011.16;;;22.99;33.81
52249;BME280;38541;48.130;8.378;2023-07-13T11:39:19;93016.69;;;23.28;32.92
52249;BME280;38541;48.130;8.378;2023-07-13T11:41:56;93025.53;;;23.28;33.35
52249;BME280;38541;48.130;8.378;2023-07-13T11:44:25;93034.19;;;23.00;33.58
52249;BME280;38541;48.130;8.378;2023-07-13T11:46:54;93016.38;;;23.29;33.37
52249;BME280;38541;48.130;8.378;2023-07-13T11:49:24;93015.56;;;23.29;32.74
52249;BME280;38541;48.130;8.378;2023-07-13T11:51:51;93010.53;;;23.52;32.03
52249;BME280;38541;48.130;8.378;2023-07-13T11:54:29;93006.06;;;23.69;31.79
52249;BME280;38541;48.130;8.378;2023-07-13T11:57:17;93005.25;;;23.68;32.74
52249;BME280;38541;48.130;8.378;2023-07-13T11:59:49;93010.44;;;24.14;33.97
52249;BME280;38541;48.130;8.378;2023-07-13T12:02:31;93009.31;;;24.15;33.58
52249;BME280;38541;48.130;8.378;2023-07-13T12:05:00;93011.78;;;24.08;31.39
52249;BME280;38541;48.130;8.378;2023-07-13T12:07:32;93005.56;;;23.91;30.64
52249;BME280;38541;48.130;8.378;2023-07-13T12:10:23;93000.97;;;23.92;32.18
52249;BME280;38541;48.130;8.378;2023-07-13T12:13:16;93014.78;;;24.47;32.23
52249;BME280;38541;48.130;8.378;2023-07-13T12:15:45;93023.50;;;24.28;33.23
52249;BME280;38541;48.130;8.378;2023-07-13T12:18:21;93014.00;;;24.18;32.23
52249;BME280;38541;48.130;8.378;2023-07-13T12:20:50;93023.81;;;24.55;32.01
52249;BME280;38541;48.130;8.378;2023-07-13T12:23:34;93019.28;;;24.43;30.44
52249;BME280;38541;48.130;8.378;2023-07-13T12:26:04;93017.13;;;24.20;32.98
52249;BME280;38541;48.130;8.378;2023-07-13T12:28:33;93020.28;;;24.10;32.98
52249;BME280;38541;48.130;8.378;2023-07-13T12:31:02;93013.94;;;24.31;32.49
52249;BME280;38541;48.130;8.378;2023-07-13T12:33:31;93026.31;;;24.48;32.68
52249;BME280;38541;48.130;8.378;2023-07-13T12:36:03;93019.81;;;24.20;33.90
52249;BME280;38541;48.130;8.378;2023-07-13T12:38:32;93013.75;;;24.24;31.85
52249;BME280;38541;48.130;8.378;2023-07-13T12:41:01;93012.03;;;23.90;32.90
52249;BME280;38541;48.130;8.378;2023-07-13T12:43:33;93011.34;;;24.06;33.89
52249;BME280;38541;48.130;8.378;2023-07-13T12:46:19;93009.25;;;24.56;33.10
52249;BME280;38541;48.130;8.378;2023-07-13T12:48:50;93011.16;;;24.84;32.19
52249;BME280;38541;48.130;8.378;2023-07-13T12:51:29;93018.25;;;24.76;30.94
52249;BME280;38541;48.130;8.378;2023-07-13T12:53:58;93022.94;;;24.79;30.22
52249;BME280;38541;48.130;8.378;2023-07-13T12:56:33;93030.56;;;24.77;30.05
52249;BME280;38541;48.130;8.378;2023-07-13T12:59:03;93028.66;;;24.78;30.16
52249;BME280;38541;48.130;8.378;2023-07-13T13:01:32;93022.59;;;24.97;30.73
52249;BME280;38541;48.130;8.378;2023-07-13T13:04:02;93040.41;;;25.50;32.54
52249;BME280;38541;48.130;8.378;2023-07-13T13:06:35;93031.38;;;25.10;29.90
52249;BME280;38541;48.130;8.378;2023-07-13T13:09:03;93036.84;;;24.41;31.55
52249;BME280;38541;48.130;8.378;2023-07-13T13:11:31;93026.50;;;24.84;32.62
52249;BME280;38541;48.130;8.378;2023-07-13T13:13:58;93024.78;;;24.63;31.76
52249;BME280;38541;48.130;8.378;2023-07-13T13:18:55;93016.28;;;24.61;34.30
52249;BME280;38541;48.130;8.378;2023-07-13T13:21:24;93010.31;;;24.68;34.57
52249;BME280;38541;48.130;8.378;2023-07-13T13:23:52;93020.09;;;24.60;34.98
52249;BME280;38541;48.130;8.378;2023-07-13T13:26:23;93020.78;;;25.17;34.41
52249;BME280;38541;48.130;8.378;2023-07-13T13:28:50;93017.53;;;25.76;34.03
52249;BME280;38541;48.130;8.378;2023-07-13T13:31:16;93006.50;;;26.17;33.55
52249;BME280;38541;48.130;8.378;2023-07-13T13:33:45;93013.31;;;25.43;33.94
52249;BME280;38541;48.130;8.378;2023-07-13T13:36:17;93014.78;;;24.92;34.02
52249;BME280;38541;48.130;8.378;2023-07-13T13:38:45;93021.44;;;24.54;35.32